sensor_id;sensor_type;location;lat;lon;timestamp;temperature;humidity
65707;SHT31;52423;43.512;5.220;2023-01-13T00:01:13;7.56;80.79
65707;SHT31;52423;43.512;5.220;2023-01-13T00:03:39;7.48;82.33
65707;SHT31;52423;43.512;5.220;2023-01-13T00:06:05;7.48;82.49
65707;SHT31;52423;43.512;5.220;2023-01-13T00:08:30;7.50;81.51
65707;SHT31;52423;43.512;5.220;2023-01-13T00:10:56;7.48;82.92
65707;SHT31;52423;43.512;5.220;2023-01-13T00:13:21;7.55;81.26
65707;SHT31;52423;43.512;5.220;2023-01-13T00:16:00;7.59;81.10
65707;SHT31;52423;43.512;5.220;2023-01-13T00:18:26;7.65;81.07
65707;SHT31;52423;43.512;5.220;2023-01-13T00:21:05;7.69;81.48
65707;SHT31;52423;43.512;5.220;2023-01-13T00:23:31;7.69;81.51
65707;SHT31;52423;43.512;5.220;2023-01-13T00:25:57;7.63;82.17
65707;SHT31;52423;43.512;5.220;2023-01-13T00:28:23;7.66;82.03
65707;SHT31;52423;43.512;5.220;2023-01-13T00:30:49;7.59;82.22
65707;SHT31;52423;43.512;5.220;2023-01-13T00:33:14;7.53;82.34
65707;SHT31;52423;43.512;5.220;2023-01-13T00:35:40;7.59;82.13
65707;SHT31;52423;43.512;5.220;2023-01-13T00:38:05;7.40;82.50
65707;SHT31;52423;43.512;5.220;2023-01-13T00:40:30;7.42;82.62
65707;SHT31;52423;43.512;5.220;2023-01-13T00:42:55;7.46;82.30
65707;SHT31;52423;43.512;5.220;2023-01-13T00:45:39;7.30;83.12
65707;SHT31;52423;43.512;5.220;2023-01-13T00:48:04;7.39;83.11
65707;SHT31;52423;43.512;5.220;2023-01-13T00:50:30;7.33;83.56
65707;SHT31;52423;43.512;5.220;2023-01-13T00:52:57;7.38;83.02
65707;SHT31;52423;43.512;5.220;2023-01-13T00:55:24;7.36;83.41
65707;SHT31;52423;43.512;5.220;2023-01-13T00:57:49;7.38;82.93
65707;SHT31;52423;43.512;5.220;2023-01-13T01:00:14;7.30;82.88
65707;SHT31;52423;43.512;5.220;2023-01-13T01:02:40;7.38;83.14
65707;SHT31;52423;43.512;5.220;2023-01-13T01:05:05;7.36;82.66
65707;SHT31;52423;43.512;5.220;2023-01-13T01:07:30;7.14;81.66
65707;SHT31;52423;43.512;5.220;2023-01-13T01:09:56;7.18;82.21
65707;SHT31;52423;43.512;5.220;2023-01-13T01:12:21;7.18;82.42
65707;SHT31;52423;43.512;5.220;2023-01-13T01:14:46;7.11;82.25
65707;SHT31;52423;43.512;5.220;2023-01-13T01:17:11;7.08;81.78
65707;SHT31;52423;43.512;5.220;2023-01-13T01:19:37;7.01;82.34
65707;SHT31;52423;43.512;5.220;2023-01-13T01:22:02;7.01;82.47
65707;SHT31;52423;43.512;5.220;2023-01-13T01:24:28;6.97;81.89
65707;SHT31;52423;43.512;5.220;2023-01-13T01:26:53;6.88;82.82
65707;SHT31;52423;43.512;5.220;2023-01-13T01:29:18;6.81;82.73
65707;SHT31;52423;43.512;5.220;2023-01-13T01:31:44;6.71;82.81
65707;SHT31;52423;43.512;5.220;2023-01-13T01:34:09;6.73;82.64
65707;SHT31;52423;43.512;5.220;2023-01-13T01:36:34;6.76;82.60
65707;SHT31;52423;43.512;5.220;2023-01-13T01:39:00;6.76;82.68
65707;SHT31;52423;43.512;5.220;2023-01-13T01:41:27;6.77;82.41
65707;SHT31;52423;43.512;5.220;2023-01-13T01:51:26;6.57;83.79
65707;SHT31;52423;43.512;5.220;2023-01-13T01:53:52;6.50;83.70
65707;SHT31;52423;43.512;5.220;2023-01-13T01:56:19;6.56;83.41
65707;SHT31;52423;43.512;5.220;2023-01-13T01:58:46;6.63;83.33
65707;SHT31;52423;43.512;5.220;2023-01-13T02:01:12;6.49;84.06
65707;SHT31;52423;43.512;5.220;2023-01-13T02:03:38;6.44;84.31
65707;SHT31;52423;43.512;5.220;2023-01-13T02:06:05;6.53;83.97
65707;SHT31;52423;43.512;5.220;2023-01-13T02:08:32;6.64;83.49
65707;SHT31;52423;43.512;5.220;2023-01-13T02:10:57;6.61;84.08
65707;SHT31;52423;43.512;5.220;2023-01-13T02:13:22;6.56;84.36
65707;SHT31;52423;43.512;5.220;2023-01-13T02:26:56;6.47;84.20
65707;SHT31;52423;43.512;5.220;2023-01-13T02:32:19;6.60;84.07
65707;SHT31;52423;43.512;5.220;2023-01-13T02:34:48;6.53;84.15
65707;SHT31;52423;43.512;5.220;2023-01-13T02:37:22;6.53;84.51
65707;SHT31;52423;43.512;5.220;2023-01-13T02:42:21;6.56;84.31
65707;SHT31;52423;43.512;5.220;2023-01-13T02:45:14;6.60;84.55
65707;SHT31;52423;43.512;5.220;2023-01-13T02:47:41;6.41;84.86
65707;SHT31;52423;43.512;5.220;2023-01-13T02:50:10;6.44;84.89
65707;SHT31;52423;43.512;5.220;2023-01-13T02:52:37;6.50;85.45
65707;SHT31;52423;43.512;5.220;2023-01-13T02:55:05;6.36;84.84
65707;SHT31;52423;43.512;5.220;2023-01-13T02:57:31;6.50;84.84
65707;SHT31;52423;43.512;5.220;2023-01-13T02:59:58;6.58;85.04
65707;SHT31;52423;43.512;5.220;2023-01-13T03:02:23;6.61;84.87
65707;SHT31;52423;43.512;5.220;2023-01-13T03:04:51;6.61;84.66
65707;SHT31;52423;43.512;5.220;2023-01-13T03:09:56;6.64;84.12
65707;SHT31;52423;43.512;5.220;2023-01-13T03:14:56;6.66;84.92
65707;SHT31;52423;43.512;5.220;2023-01-13T03:17:29;6.57;84.32
65707;SHT31;52423;43.512;5.220;2023-01-13T03:20:01;6.61;84.32
65707;SHT31;52423;43.512;5.220;2023-01-13T03:27:45;6.47;85.43
65707;SHT31;52423;43.512;5.220;2023-01-13T03:30:19;6.50;84.85
65707;SHT31;52423;43.512;5.220;2023-01-13T03:32:47;6.53;84.83
65707;SHT31;52423;43.512;5.220;2023-01-13T03:35:14;6.66;84.69
65707;SHT31;52423;43.512;5.220;2023-01-13T03:37:42;6.64;84.38
65707;SHT31;52423;43.512;5.220;2023-01-13T03:40:14;6.66;84.34
65707;SHT31;52423;43.512;5.220;2023-01-13T03:42:41;6.58;84.85
65707;SHT31;52423;43.512;5.220;2023-01-13T03:45:32;6.54;84.87
65707;SHT31;52423;43.512;5.220;2023-01-13T03:47:58;6.53;85.43
65707;SHT31;52423;43.512;5.220;2023-01-13T03:50:27;6.56;85.25
65707;SHT31;52423;43.512;5.220;2023-01-13T03:55:39;6.60;84.85
65707;SHT31;52423;43.512;5.220;2023-01-13T03:58:06;6.56;84.88
65707;SHT31;52423;43.512;5.220;2023-01-13T04:00:39;6.51;85.48
65707;SHT31;52423;43.512;5.220;2023-01-13T04:03:07;6.51;85.27
65707;SHT31;52423;43.512;5.220;2023-01-13T04:05:34;6.56;85.02
65707;SHT31;52423;43.512;5.220;2023-01-13T04:08:21;6.57;85.05
65707;SHT31;52423;43.512;5.220;2023-01-13T04:11:04;6.57;84.41
65707;SHT31;52423;43.512;5.220;2023-01-13T04:13:32;6.54;84.18
65707;SHT31;52423;43.512;5.220;2023-01-13T04:15:59;6.51;84.05
65707;SHT31;52423;43.512;5.220;2023-01-13T04:20:51;6.47;83.99
65707;SHT31;52423;43.512;5.220;2023-01-13T04:23:16;6.50;84.07
65707;SHT31;52423;43.512;5.220;2023-01-13T04:25:42;6.50;84.49
65707;SHT31;52423;43.512;5.220;2023-01-13T04:28:08;6.54;84.03
65707;SHT31;52423;43.512;5.220;2023-01-13T04:30:34;6.50;84.73
65707;SHT31;52423;43.512;5.220;2023-01-13T04:32:59;6.49;84.50
65707;SHT31;52423;43.512;5.220;2023-01-13T04:35:24;6.41;84.11
65707;SHT31;52423;43.512;5.220;2023-01-13T04:37:49;6.44;84.39
65707;SHT31;52423;43.512;5.220;2023-01-13T04:40:15;6.43;84.57
65707;SHT31;52423;43.512;5.220;2023-01-13T04:42:42;6.51;84.34
65707;SHT31;52423;43.512;5.220;2023-01-13T04:45:07;6.51;84.30
65707;SHT31;52423;43.512;5.220;2023-01-13T04:47:33;6.41;85.52
65707;SHT31;52423;43.512;5.220;2023-01-13T04:49:58;6.43;85.38
65707;SHT31;52423;43.512;5.220;2023-01-13T04:52:23;6.53;86.03
65707;SHT31;52423;43.512;5.220;2023-01-13T04:54:48;6.60;85.22
65707;SHT31;52423;43.512;5.220;2023-01-13T04:57:14;6.57;85.12
65707;SHT31;52423;43.512;5.220;2023-01-13T04:59:39;6.49;85.57
65707;SHT31;52423;43.512;5.220;2023-01-13T05:02:06;6.60;84.79
65707;SHT31;52423;43.512;5.220;2023-01-13T05:04:33;6.60;84.64
65707;SHT31;52423;43.512;5.220;2023-01-13T05:06:58;6.58;85.24
65707;SHT31;52423;43.512;5.220;2023-01-13T05:09:23;6.49;85.13
65707;SHT31;52423;43.512;5.220;2023-01-13T05:11:48;6.51;84.84
65707;SHT31;52423;43.512;5.220;2023-01-13T05:14:32;6.54;84.48
65707;SHT31;52423;43.512;5.220;2023-01-13T05:17:18;6.46;85.18
65707;SHT31;52423;43.512;5.220;2023-01-13T05:19:44;6.49;85.17
65707;SHT31;52423;43.512;5.220;2023-01-13T05:22:09;6.46;84.62
65707;SHT31;52423;43.512;5.220;2023-01-13T05:24:53;6.34;85.59
65707;SHT31;52423;43.512;5.220;2023-01-13T05:27:37;6.39;84.99
65707;SHT31;52423;43.512;5.220;2023-01-13T05:30:03;6.34;85.02
65707;SHT31;52423;43.512;5.220;2023-01-13T05:32:28;6.37;85.27
65707;SHT31;52423;43.512;5.220;2023-01-13T05:34:54;6.30;84.81
65707;SHT31;52423;43.512;5.220;2023-01-13T05:37:20;6.25;85.79
65707;SHT31;52423;43.512;5.220;2023-01-13T05:39:45;6.18;86.44
65707;SHT31;52423;43.512;5.220;2023-01-13T05:42:29;6.10;86.95
65707;SHT31;52423;43.512;5.220;2023-01-13T05:45:13;6.06;86.75
65707;SHT31;52423;43.512;5.220;2023-01-13T05:47:38;6.23;86.89
65707;SHT31;52423;43.512;5.220;2023-01-13T05:50:04;6.30;86.53
65707;SHT31;52423;43.512;5.220;2023-01-13T05:52:29;6.32;86.03
65707;SHT31;52423;43.512;5.220;2023-01-13T05:54:54;6.32;86.65
65707;SHT31;52423;43.512;5.220;2023-01-13T05:57:19;6.32;86.19
65707;SHT31;52423;43.512;5.220;2023-01-13T05:59:45;6.25;86.79
65707;SHT31;52423;43.512;5.220;2023-01-13T06:02:10;6.32;87.10
65707;SHT31;52423;43.512;5.220;2023-01-13T06:04:35;6.28;87.16
65707;SHT31;52423;43.512;5.220;2023-01-13T06:07:01;6.36;86.94
65707;SHT31;52423;43.512;5.220;2023-01-13T06:09:26;6.43;85.94
65707;SHT31;52423;43.512;5.220;2023-01-13T06:11:51;6.32;86.95
65707;SHT31;52423;43.512;5.220;2023-01-13T06:14:16;6.34;86.56
65707;SHT31;52423;43.512;5.220;2023-01-13T06:16:42;6.37;86.66
65707;SHT31;52423;43.512;5.220;2023-01-13T06:19:09;6.36;86.48
65707;SHT31;52423;43.512;5.220;2023-01-13T06:21:37;6.40;86.22
65707;SHT31;52423;43.512;5.220;2023-01-13T06:24:02;6.36;87.38
65707;SHT31;52423;43.512;5.220;2023-01-13T06:26:28;6.41;86.25
65707;SHT31;52423;43.512;5.220;2023-01-13T06:28:54;6.47;85.94
65707;SHT31;52423;43.512;5.220;2023-01-13T06:31:19;6.43;85.91
65707;SHT31;52423;43.512;5.220;2023-01-13T06:33:47;6.37;86.17
65707;SHT31;52423;43.512;5.220;2023-01-13T06:36:17;6.36;86.22
65707;SHT31;52423;43.512;5.220;2023-01-13T06:38:45;6.39;86.43
65707;SHT31;52423;43.512;5.220;2023-01-13T06:41:11;6.34;86.42
65707;SHT31;52423;43.512;5.220;2023-01-13T06:43:37;6.28;87.46
65707;SHT31;52423;43.512;5.220;2023-01-13T06:46:03;6.23;88.09
65707;SHT31;52423;43.512;5.220;2023-01-13T06:48:29;6.20;87.80
65707;SHT31;52423;43.512;5.220;2023-01-13T06:50:57;6.26;88.28
65707;SHT31;52423;43.512;5.220;2023-01-13T06:53:22;6.29;87.89
65707;SHT31;52423;43.512;5.220;2023-01-13T06:55:47;6.23;88.34
65707;SHT31;52423;43.512;5.220;2023-01-13T06:58:13;6.30;86.87
65707;SHT31;52423;43.512;5.220;2023-01-13T07:00:38;6.34;87.95
65707;SHT31;52423;43.512;5.220;2023-01-13T07:03:04;6.37;86.77
65707;SHT31;52423;43.512;5.220;2023-01-13T07:05:29;6.29;88.04
65707;SHT31;52423;43.512;5.220;2023-01-13T07:07:55;6.32;87.71
65707;SHT31;52423;43.512;5.220;2023-01-13T07:10:20;6.36;87.30
65707;SHT31;52423;43.512;5.220;2023-01-13T07:12:46;6.44;86.96
65707;SHT31;52423;43.512;5.220;2023-01-13T07:15:30;6.39;88.07
65707;SHT31;52423;43.512;5.220;2023-01-13T07:17:55;6.32;88.25
65707;SHT31;52423;43.512;5.220;2023-01-13T07:20:22;6.40;88.44
65707;SHT31;52423;43.512;5.220;2023-01-13T07:22:52;6.47;88.12
65707;SHT31;52423;43.512;5.220;2023-01-13T07:25:17;6.34;88.56
65707;SHT31;52423;43.512;5.220;2023-01-13T07:27:42;6.40;88.18
65707;SHT31;52423;43.512;5.220;2023-01-13T07:30:08;6.43;88.44
65707;SHT31;52423;43.512;5.220;2023-01-13T07:32:33;6.53;88.67
65707;SHT31;52423;43.512;5.220;2023-01-13T07:34:59;6.67;87.74
65707;SHT31;52423;43.512;5.220;2023-01-13T07:37:32;6.71;87.76
65707;SHT31;52423;43.512;5.220;2023-01-13T07:39:58;6.71;88.34
65707;SHT31;52423;43.512;5.220;2023-01-13T07:42:23;6.74;87.54
65707;SHT31;52423;43.512;5.220;2023-01-13T07:45:08;6.87;86.72
65707;SHT31;52423;43.512;5.220;2023-01-13T07:47:33;6.84;87.45
65707;SHT31;52423;43.512;5.220;2023-01-13T07:49:58;6.80;87.99
65707;SHT31;52423;43.512;5.220;2023-01-13T07:52:23;6.80;88.37
65707;SHT31;52423;43.512;5.220;2023-01-13T07:54:49;6.77;87.81
65707;SHT31;52423;43.512;5.220;2023-01-13T07:57:14;6.73;87.71
65707;SHT31;52423;43.512;5.220;2023-01-13T07:59:39;6.80;87.91
65707;SHT31;52423;43.512;5.220;2023-01-13T08:02:05;6.83;87.56
65707;SHT31;52423;43.512;5.220;2023-01-13T08:04:30;6.83;87.76
65707;SHT31;52423;43.512;5.220;2023-01-13T08:06:55;6.80;87.15
65707;SHT31;52423;43.512;5.220;2023-01-13T08:09:20;6.90;87.38
65707;SHT31;52423;43.512;5.220;2023-01-13T08:11:46;6.83;88.05
65707;SHT31;52423;43.512;5.220;2023-01-13T08:14:31;6.80;87.71
65707;SHT31;52423;43.512;5.220;2023-01-13T08:16:56;6.87;87.51
65707;SHT31;52423;43.512;5.220;2023-01-13T08:19:21;6.94;87.56
65707;SHT31;52423;43.512;5.220;2023-01-13T08:21:47;6.98;87.46
65707;SHT31;52423;43.512;5.220;2023-01-13T08:24:12;6.98;87.27
65707;SHT31;52423;43.512;5.220;2023-01-13T08:26:37;7.05;86.97
65707;SHT31;52423;43.512;5.220;2023-01-13T08:29:02;7.11;87.12
65707;SHT31;52423;43.512;5.220;2023-01-13T08:31:28;7.11;86.93
65707;SHT31;52423;43.512;5.220;2023-01-13T08:33:53;7.07;87.35
65707;SHT31;52423;43.512;5.220;2023-01-13T08:36:18;7.11;87.41
65707;SHT31;52423;43.512;5.220;2023-01-13T08:38:44;7.12;87.53
65707;SHT31;52423;43.512;5.220;2023-01-13T08:41:10;7.16;86.93
65707;SHT31;52423;43.512;5.220;2023-01-13T08:43:35;7.16;87.20
65707;SHT31;52423;43.512;5.220;2023-01-13T08:46:01;7.23;87.52
65707;SHT31;52423;43.512;5.220;2023-01-13T08:48:28;7.21;88.23
65707;SHT31;52423;43.512;5.220;2023-01-13T08:51:00;7.25;86.99
65707;SHT31;52423;43.512;5.220;2023-01-13T08:53:25;7.22;87.17
65707;SHT31;52423;43.512;5.220;2023-01-13T08:55:50;7.25;87.36
65707;SHT31;52423;43.512;5.220;2023-01-13T08:58:16;7.25;87.32
65707;SHT31;52423;43.512;5.220;2023-01-13T09:00:41;7.25;87.70
65707;SHT31;52423;43.512;5.220;2023-01-13T09:03:07;7.23;88.84
65707;SHT31;52423;43.512;5.220;2023-01-13T09:05:32;7.35;88.29
65707;SHT31;52423;43.512;5.220;2023-01-13T09:07:59;7.43;88.10
65707;SHT31;52423;43.512;5.220;2023-01-13T09:10:24;7.43;88.09
65707;SHT31;52423;43.512;5.220;2023-01-13T09:12:49;7.45;88.11
65707;SHT31;52423;43.512;5.220;2023-01-13T09:15:33;7.52;88.18
65707;SHT31;52423;43.512;5.220;2023-01-13T09:17:58;7.55;87.89
65707;SHT31;52423;43.512;5.220;2023-01-13T09:20:24;7.48;87.39
65707;SHT31;52423;43.512;5.220;2023-01-13T09:22:49;7.56;87.82
65707;SHT31;52423;43.512;5.220;2023-01-13T09:25:14;7.59;87.49
65707;SHT31;52423;43.512;5.220;2023-01-13T09:27:40;7.63;88.24
65707;SHT31;52423;43.512;5.220;2023-01-13T09:30:05;7.66;87.33
65707;SHT31;52423;43.512;5.220;2023-01-13T09:32:31;7.74;88.02
65707;SHT31;52423;43.512;5.220;2023-01-13T09:34:56;7.77;87.99
65707;SHT31;52423;43.512;5.220;2023-01-13T09:37:28;7.76;88.22
65707;SHT31;52423;43.512;5.220;2023-01-13T09:39:54;7.80;87.87
65707;SHT31;52423;43.512;5.220;2023-01-13T09:45:24;7.94;86.99
65707;SHT31;52423;43.512;5.220;2023-01-13T09:50:25;8.01;86.93
65707;SHT31;52423;43.512;5.220;2023-01-13T09:52:53;8.08;86.86
65707;SHT31;52423;43.512;5.220;2023-01-13T09:55:21;8.11;86.15
65707;SHT31;52423;43.512;5.220;2023-01-13T09:57:47;8.14;86.05
65707;SHT31;52423;43.512;5.220;2023-01-13T10:00:19;8.17;86.75
65707;SHT31;52423;43.512;5.220;2023-01-13T10:02:53;8.22;86.70
65707;SHT31;52423;43.512;5.220;2023-01-13T10:07:51;8.37;86.73
65707;SHT31;52423;43.512;5.220;2023-01-13T10:10:24;8.39;86.29
65707;SHT31;52423;43.512;5.220;2023-01-13T10:12:52;8.41;85.78
65707;SHT31;52423;43.512;5.220;2023-01-13T10:15:36;8.44;85.71
65707;SHT31;52423;43.512;5.220;2023-01-13T10:18:08;8.45;85.65
65707;SHT31;52423;43.512;5.220;2023-01-13T10:27:54;8.53;85.03
65707;SHT31;52423;43.512;5.220;2023-01-13T10:30:24;8.53;85.63
65707;SHT31;52423;43.512;5.220;2023-01-13T10:32:58;8.53;85.44
65707;SHT31;52423;43.512;5.220;2023-01-13T10:38:14;8.56;86.01
65707;SHT31;52423;43.512;5.220;2023-01-13T10:40:45;8.59;85.67
65707;SHT31;52423;43.512;5.220;2023-01-13T10:43:11;8.65;85.58
65707;SHT31;52423;43.512;5.220;2023-01-13T10:45:36;8.68;85.56
65707;SHT31;52423;43.512;5.220;2023-01-13T10:48:04;8.75;85.86
65707;SHT31;52423;43.512;5.220;2023-01-13T10:50:30;8.82;85.30
65707;SHT31;52423;43.512;5.220;2023-01-13T10:52:59;8.82;84.69
65707;SHT31;52423;43.512;5.220;2023-01-13T10:55:27;8.83;83.48
65707;SHT31;52423;43.512;5.220;2023-01-13T10:57:52;8.99;83.54
65707;SHT31;52423;43.512;5.220;2023-01-13T11:00:28;9.09;83.11
65707;SHT31;52423;43.512;5.220;2023-01-13T11:05:38;9.50;81.80
65707;SHT31;52423;43.512;5.220;2023-01-13T11:08:03;9.64;81.70
65707;SHT31;52423;43.512;5.220;2023-01-13T11:10:29;9.77;80.74
65707;SHT31;52423;43.512;5.220;2023-01-13T11:13:04;9.88;80.42
65707;SHT31;52423;43.512;5.220;2023-01-13T11:15:48;9.96;79.59
65707;SHT31;52423;43.512;5.220;2023-01-13T11:20:43;10.23;79.81
65707;SHT31;52423;43.512;5.220;2023-01-13T11:23:12;10.22;79.30
65707;SHT31;52423;43.512;5.220;2023-01-13T11:25:43;10.29;79.10
65707;SHT31;52423;43.512;5.220;2023-01-13T11:40:52;10.60;78.03
65707;SHT31;52423;43.512;5.220;2023-01-13T11:43:22;10.61;78.49
65707;SHT31;52423;43.512;5.220;2023-01-13T11:45:51;10.67;78.29
65707;SHT31;52423;43.512;5.220;2023-01-13T11:48:19;10.64;78.21
65707;SHT31;52423;43.512;5.220;2023-01-13T11:55:52;10.84;77.64
65707;SHT31;52423;43.512;5.220;2023-01-13T12:06:07;11.02;78.25
65707;SHT31;52423;43.512;5.220;2023-01-13T12:11:30;10.85;77.69
65707;SHT31;52423;43.512;5.220;2023-01-13T12:14:10;11.01;77.40
65707;SHT31;52423;43.512;5.220;2023-01-13T12:16:45;10.98;77.29
65707;SHT31;52423;43.512;5.220;2023-01-13T12:19:20;10.95;77.54
65707;SHT31;52423;43.512;5.220;2023-01-13T12:29:57;11.87;78.17
65707;SHT31;52423;43.512;5.220;2023-01-13T12:32:28;12.11;76.55
65707;SHT31;52423;43.512;5.220;2023-01-13T12:40:10;12.96;71.56
65707;SHT31;52423;43.512;5.220;2023-01-13T12:45:22;13.33;70.01
65707;SHT31;52423;43.512;5.220;2023-01-13T12:47:47;13.37;70.87
65707;SHT31;52423;43.512;5.220;2023-01-13T12:50:58;13.39;70.27
65707;SHT31;52423;43.512;5.220;2023-01-13T12:55:49;13.65;67.88
65707;SHT31;52423;43.512;5.220;2023-01-13T12:58:15;13.98;65.57
65707;SHT31;52423;43.512;5.220;2023-01-13T13:05:36;13.97;66.81
65707;SHT31;52423;43.512;5.220;2023-01-13T13:08:09;13.86;67.00
65707;SHT31;52423;43.512;5.220;2023-01-13T13:10:37;13.91;66.85
65707;SHT31;52423;43.512;5.220;2023-01-13T13:13:19;14.21;64.22
65707;SHT31;52423;43.512;5.220;2023-01-13T13:15:46;14.18;66.11
65707;SHT31;52423;43.512;5.220;2023-01-13T13:26:00;14.47;62.09
65707;SHT31;52423;43.512;5.220;2023-01-13T13:28:27;14.57;62.20
65707;SHT31;52423;43.512;5.220;2023-01-13T13:31:04;14.66;61.84
65707;SHT31;52423;43.512;5.220;2023-01-13T13:33:48;14.70;60.50
65707;SHT31;52423;43.512;5.220;2023-01-13T13:41:45;14.80;58.55
65707;SHT31;52423;43.512;5.220;2023-01-13T13:44:32;14.74;61.01
65707;SHT31;52423;43.512;5.220;2023-01-13T13:47:16;14.73;61.17
65707;SHT31;52423;43.512;5.220;2023-01-13T13:49:43;14.59;61.99
65707;SHT31;52423;43.512;5.220;2023-01-13T13:54:36;14.59;62.08
65707;SHT31;52423;43.512;5.220;2023-01-13T13:57:03;14.60;60.64
65707;SHT31;52423;43.512;5.220;2023-01-13T13:59:29;14.76;58.57
65707;SHT31;52423;43.512;5.220;2023-01-13T14:01:55;14.84;57.25
65707;SHT31;52423;43.512;5.220;2023-01-13T14:04:28;14.70;59.15
65707;SHT31;52423;43.512;5.220;2023-01-13T14:07:01;14.70;60.92
65707;SHT31;52423;43.512;5.220;2023-01-13T14:09:39;14.73;60.63
65707;SHT31;52423;43.512;5.220;2023-01-13T14:12:08;14.72;61.45
65707;SHT31;52423;43.512;5.220;2023-01-13T14:14:42;14.70;58.55
65707;SHT31;52423;43.512;5.220;2023-01-13T14:17:15;14.49;60.99
65707;SHT31;52423;43.512;5.220;2023-01-13T14:19:41;14.63;60.37
65707;SHT31;52423;43.512;5.220;2023-01-13T14:22:11;14.74;58.26
65707;SHT31;52423;43.512;5.220;2023-01-13T14:24:43;14.81;59.44
65707;SHT31;52423;43.512;5.220;2023-01-13T14:27:12;14.84;56.63
65707;SHT31;52423;43.512;5.220;2023-01-13T14:29:38;14.95;57.57
65707;SHT31;52423;43.512;5.220;2023-01-13T14:32:03;14.85;59.03
65707;SHT31;52423;43.512;5.220;2023-01-13T14:34:29;14.80;59.84
65707;SHT31;52423;43.512;5.220;2023-01-13T14:36:56;14.83;60.26
65707;SHT31;52423;43.512;5.220;2023-01-13T14:39:23;14.76;60.38
65707;SHT31;52423;43.512;5.220;2023-01-13T14:41:48;14.73;60.08
65707;SHT31;52423;43.512;5.220;2023-01-13T14:44:31;15.00;57.07
65707;SHT31;52423;43.512;5.220;2023-01-13T14:47:14;15.05;58.55
65707;SHT31;52423;43.512;5.220;2023-01-13T14:49:49;14.95;59.34
65707;SHT31;52423;43.512;5.220;2023-01-13T14:52:18;14.85;59.40
65707;SHT31;52423;43.512;5.220;2023-01-13T15:02:43;14.69;57.19
65707;SHT31;52423;43.512;5.220;2023-01-13T15:08:00;14.83;55.30
65707;SHT31;52423;43.512;5.220;2023-01-13T15:10:30;14.76;56.62
65707;SHT31;52423;43.512;5.220;2023-01-13T15:12:57;14.59;57.74
65707;SHT31;52423;43.512;5.220;2023-01-13T15:15:24;14.56;56.99
65707;SHT31;52423;43.512;5.220;2023-01-13T15:17:51;14.60;56.17
65707;SHT31;52423;43.512;5.220;2023-01-13T15:20:17;14.52;57.33
65707;SHT31;52423;43.512;5.220;2023-01-13T15:22:43;14.53;57.01
65707;SHT31;52423;43.512;5.220;2023-01-13T15:25:08;14.57;57.39
65707;SHT31;52423;43.512;5.220;2023-01-13T15:27:34;14.62;56.77
65707;SHT31;52423;43.512;5.220;2023-01-13T15:30:00;14.53;57.10
65707;SHT31;52423;43.512;5.220;2023-01-13T15:32:25;14.33;58.32
65707;SHT31;52423;43.512;5.220;2023-01-13T15:34:50;14.18;59.36
65707;SHT31;52423;43.512;5.220;2023-01-13T15:37:17;14.16;58.87
65707;SHT31;52423;43.512;5.220;2023-01-13T15:39:43;14.13;59.23
65707;SHT31;52423;43.512;5.220;2023-01-13T15:42:10;14.09;58.21
65707;SHT31;52423;43.512;5.220;2023-01-13T15:44:54;13.92;60.17
65707;SHT31;52423;43.512;5.220;2023-01-13T15:47:38;13.77;59.46
65707;SHT31;52423;43.512;5.220;2023-01-13T15:50:04;13.67;60.95
65707;SHT31;52423;43.512;5.220;2023-01-13T15:52:29;13.58;60.98
65707;SHT31;52423;43.512;5.220;2023-01-13T15:54:54;13.48;60.90
65707;SHT31;52423;43.512;5.220;2023-01-13T15:57:21;13.33;62.19
65707;SHT31;52423;43.512;5.220;2023-01-13T15:59:46;13.26;61.66
65707;SHT31;52423;43.512;5.220;2023-01-13T16:02:12;13.12;63.73
65707;SHT31;52423;43.512;5.220;2023-01-13T16:04:40;13.00;63.31
65707;SHT31;52423;43.512;5.220;2023-01-13T16:07:09;12.95;64.14
65707;SHT31;52423;43.512;5.220;2023-01-13T16:09:37;12.78;65.24
65707;SHT31;52423;43.512;5.220;2023-01-13T16:12:02;12.69;65.69
65707;SHT31;52423;43.512;5.220;2023-01-13T16:14:27;12.55;66.03
65707;SHT31;52423;43.512;5.220;2023-01-13T16:16:53;12.46;66.70
65707;SHT31;52423;43.512;5.220;2023-01-13T16:19:19;12.34;67.53
65707;SHT31;52423;43.512;5.220;2023-01-13T16:21:44;12.25;67.90
65707;SHT31;52423;43.512;5.220;2023-01-13T16:24:09;12.13;68.85
65707;SHT31;52423;43.512;5.220;2023-01-13T16:26:35;12.05;69.31
65707;SHT31;52423;43.512;5.220;2023-01-13T16:29:01;11.90;69.65
65707;SHT31;52423;43.512;5.220;2023-01-13T16:31:27;11.79;70.89
65707;SHT31;52423;43.512;5.220;2023-01-13T16:33:55;11.74;70.98
65707;SHT31;52423;43.512;5.220;2023-01-13T16:36:21;11.70;69.88
65707;SHT31;52423;43.512;5.220;2023-01-13T16:38:48;11.70;70.04
65707;SHT31;52423;43.512;5.220;2023-01-13T16:41:13;11.70;70.09
65707;SHT31;52423;43.512;5.220;2023-01-13T16:43:39;11.63;70.62
65707;SHT31;52423;43.512;5.220;2023-01-13T16:46:25;11.62;70.18
65707;SHT31;52423;43.512;5.220;2023-01-13T16:48:50;11.59;70.59
65707;SHT31;52423;43.512;5.220;2023-01-13T16:51:17;11.55;70.48
65707;SHT31;52423;43.512;5.220;2023-01-13T16:53:42;11.55;70.04
65707;SHT31;52423;43.512;5.220;2023-01-13T16:56:12;11.49;71.03
65707;SHT31;52423;43.512;5.220;2023-01-13T16:58:40;11.49;70.00
65707;SHT31;52423;43.512;5.220;2023-01-13T17:01:05;11.43;70.64
65707;SHT31;52423;43.512;5.220;2023-01-13T17:03:31;11.32;70.35
65707;SHT31;52423;43.512;5.220;2023-01-13T17:06:00;11.29;70.67
65707;SHT31;52423;43.512;5.220;2023-01-13T17:08:25;11.29;70.73
65707;SHT31;52423;43.512;5.220;2023-01-13T17:10:50;11.25;71.39
65707;SHT31;52423;43.512;5.220;2023-01-13T17:13:16;11.39;69.55
65707;SHT31;52423;43.512;5.220;2023-01-13T17:15:43;11.39;69.84
65707;SHT31;52423;43.512;5.220;2023-01-13T17:18:08;11.43;69.41
65707;SHT31;52423;43.512;5.220;2023-01-13T17:20:35;11.43;70.03
65707;SHT31;52423;43.512;5.220;2023-01-13T17:23:00;11.40;70.30
65707;SHT31;52423;43.512;5.220;2023-01-13T17:25:25;11.53;69.28
65707;SHT31;52423;43.512;5.220;2023-01-13T17:27:51;11.52;69.76
65707;SHT31;52423;43.512;5.220;2023-01-13T17:30:16;11.49;69.47
65707;SHT31;52423;43.512;5.220;2023-01-13T17:32:43;11.43;70.14
65707;SHT31;52423;43.512;5.220;2023-01-13T17:35:08;11.53;69.22
65707;SHT31;52423;43.512;5.220;2023-01-13T17:37:34;11.40;70.38
65707;SHT31;52423;43.512;5.220;2023-01-13T17:39:59;11.42;69.96
65707;SHT31;52423;43.512;5.220;2023-01-13T17:42:24;11.43;70.11
65707;SHT31;52423;43.512;5.220;2023-01-13T17:44:52;11.26;70.73
65707;SHT31;52423;43.512;5.220;2023-01-13T17:47:18;11.15;71.12
65707;SHT31;52423;43.512;5.220;2023-01-13T17:49:43;11.14;71.01
65707;SHT31;52423;43.512;5.220;2023-01-13T17:52:08;11.19;71.02
65707;SHT31;52423;43.512;5.220;2023-01-13T17:54:34;11.07;71.58
65707;SHT31;52423;43.512;5.220;2023-01-13T17:56:59;11.02;71.91
65707;SHT31;52423;43.512;5.220;2023-01-13T17:59:24;10.91;72.52
65707;SHT31;52423;43.512;5.220;2023-01-13T18:01:50;10.82;72.66
65707;SHT31;52423;43.512;5.220;2023-01-13T18:04:16;10.84;72.49
65707;SHT31;52423;43.512;5.220;2023-01-13T18:06:42;10.97;72.58